Terminal Aerodrome Forecast
Issued by NWS Austin/San Antonio, TX

Home | Current Version | Previous Version | Text Only | Print | Product List | Glossary On
Versions: 1 2 3 4 5 6 7 8 9 10 11 12
000
FTUS44 KEWX 152330
TAFDRT
TAF
KDRT 152330Z 1600/1624 21005KT P6SM BKN200
     FM160400 11005KT P6SM BKN080 OVC200
     FM161500 14009KT 5SM -RA OVC020=

USA.gov is the U.S. government's official web portal to all federal, state and local government web resources and services.